sensor_id;sensor_type;location;lat;lon;timestamp;temperature;humidity
40257;DHT22;25977;45.462;9.210;2023-07-31T00:00:27;27.80;87.90
40257;DHT22;25977;45.462;9.210;2023-07-31T00:02:53;27.80;87.90
40257;DHT22;25977;45.462;9.210;2023-07-31T00:05:19;27.70;87.90
40257;DHT22;25977;45.462;9.210;2023-07-31T00:07:45;27.70;87.90
40257;DHT22;25977;45.462;9.210;2023-07-31T00:10:10;27.70;88.00
40257;DHT22;25977;45.462;9.210;2023-07-31T00:12:38;27.60;88.10
40257;DHT22;25977;45.462;9.210;2023-07-31T00:15:06;27.60;88.20
40257;DHT22;25977;45.462;9.210;2023-07-31T00:17:32;27.50;88.20
40257;DHT22;25977;45.462;9.210;2023-07-31T00:19:58;27.30;88.60
40257;DHT22;25977;45.462;9.210;2023-07-31T00:22:24;27.30;88.60
40257;DHT22;25977;45.462;9.210;2023-07-31T00:24:49;27.20;88.70
40257;DHT22;25977;45.462;9.210;2023-07-31T00:27:15;27.30;88.80
40257;DHT22;25977;45.462;9.210;2023-07-31T00:29:41;27.40;88.70
40257;DHT22;25977;45.462;9.210;2023-07-31T00:32:07;27.40;88.50
40257;DHT22;25977;45.462;9.210;2023-07-31T00:34:33;27.40;88.60
40257;DHT22;25977;45.462;9.210;2023-07-31T00:36:58;27.30;88.50
40257;DHT22;25977;45.462;9.210;2023-07-31T00:39:24;27.30;88.20
40257;DHT22;25977;45.462;9.210;2023-07-31T00:41:50;27.30;88.00
40257;DHT22;25977;45.462;9.210;2023-07-31T00:44:16;27.00;88.20
40257;DHT22;25977;45.462;9.210;2023-07-31T00:46:42;27.00;88.70
40257;DHT22;25977;45.462;9.210;2023-07-31T00:49:08;27.00;88.60
40257;DHT22;25977;45.462;9.210;2023-07-31T00:51:34;27.10;88.60
40257;DHT22;25977;45.462;9.210;2023-07-31T00:54:00;27.10;88.50
40257;DHT22;25977;45.462;9.210;2023-07-31T00:56:27;27.10;88.50
40257;DHT22;25977;45.462;9.210;2023-07-31T00:58:54;27.10;88.60
40257;DHT22;25977;45.462;9.210;2023-07-31T01:01:20;27.00;88.80
40257;DHT22;25977;45.462;9.210;2023-07-31T01:03:46;26.90;88.90
40257;DHT22;25977;45.462;9.210;2023-07-31T01:06:20;27.00;89.20
40257;DHT22;25977;45.462;9.210;2023-07-31T01:11:28;26.80;89.70
40257;DHT22;25977;45.462;9.210;2023-07-31T01:13:55;26.80;90.00
40257;DHT22;25977;45.462;9.210;2023-07-31T01:16:21;26.80;90.00
40257;DHT22;25977;45.462;9.210;2023-07-31T01:18:47;26.70;90.00
40257;DHT22;25977;45.462;9.210;2023-07-31T01:24:13;26.70;90.10
40257;DHT22;25977;45.462;9.210;2023-07-31T01:26:43;26.70;90.10
40257;DHT22;25977;45.462;9.210;2023-07-31T01:29:45;26.70;90.20
40257;DHT22;25977;45.462;9.210;2023-07-31T01:32:13;26.70;90.30
40257;DHT22;25977;45.462;9.210;2023-07-31T01:34:39;26.60;90.40
40257;DHT22;25977;45.462;9.210;2023-07-31T01:37:07;26.40;90.50
40257;DHT22;25977;45.462;9.210;2023-07-31T01:39:32;26.50;90.50
40257;DHT22;25977;45.462;9.210;2023-07-31T01:41:58;26.50;90.50
40257;DHT22;25977;45.462;9.210;2023-07-31T01:44:24;26.50;90.60
40257;DHT22;25977;45.462;9.210;2023-07-31T01:46:49;26.50;90.60
40257;DHT22;25977;45.462;9.210;2023-07-31T01:49:15;26.40;90.50
40257;DHT22;25977;45.462;9.210;2023-07-31T01:51:41;26.40;90.60
40257;DHT22;25977;45.462;9.210;2023-07-31T01:54:07;26.40;90.60
40257;DHT22;25977;45.462;9.210;2023-07-31T01:56:32;26.30;90.60
40257;DHT22;25977;45.462;9.210;2023-07-31T01:58:58;26.30;90.70
40257;DHT22;25977;45.462;9.210;2023-07-31T02:01:24;26.20;90.70
40257;DHT22;25977;45.462;9.210;2023-07-31T02:03:50;26.20;90.70
40257;DHT22;25977;45.462;9.210;2023-07-31T02:06:16;26.20;90.80
40257;DHT22;25977;45.462;9.210;2023-07-31T02:08:42;26.20;90.70
40257;DHT22;25977;45.462;9.210;2023-07-31T02:11:08;26.20;90.60
40257;DHT22;25977;45.462;9.210;2023-07-31T02:13:34;26.30;90.60
40257;DHT22;25977;45.462;9.210;2023-07-31T02:15:59;26.20;90.80
40257;DHT22;25977;45.462;9.210;2023-07-31T02:18:25;26.30;90.60
40257;DHT22;25977;45.462;9.210;2023-07-31T02:20:51;26.20;90.60
40257;DHT22;25977;45.462;9.210;2023-07-31T02:23:20;26.20;90.60
40257;DHT22;25977;45.462;9.210;2023-07-31T02:25:47;26.10;90.70
40257;DHT22;25977;45.462;9.210;2023-07-31T02:28:13;26.10;90.70
40257;DHT22;25977;45.462;9.210;2023-07-31T02:30:39;26.10;90.80
40257;DHT22;25977;45.462;9.210;2023-07-31T02:33:05;26.10;90.80
40257;DHT22;25977;45.462;9.210;2023-07-31T02:35:31;26.10;90.80
40257;DHT22;25977;45.462;9.210;2023-07-31T02:37:56;26.10;90.80
40257;DHT22;25977;45.462;9.210;2023-07-31T02:40:22;26.10;90.70
40257;DHT22;25977;45.462;9.210;2023-07-31T02:42:48;26.10;90.80
40257;DHT22;25977;45.462;9.210;2023-07-31T02:45:14;26.10;90.80
40257;DHT22;25977;45.462;9.210;2023-07-31T02:47:40;26.00;90.80
40257;DHT22;25977;45.462;9.210;2023-07-31T02:50:06;26.10;90.90
40257;DHT22;25977;45.462;9.210;2023-07-31T02:52:32;26.00;90.80
40257;DHT22;25977;45.462;9.210;2023-07-31T02:54:58;26.00;90.80
40257;DHT22;25977;45.462;9.210;2023-07-31T02:57:24;26.00;91.10
40257;DHT22;25977;45.462;9.210;2023-07-31T02:59:50;26.00;90.90
40257;DHT22;25977;45.462;9.210;2023-07-31T03:02:15;26.00;90.90
40257;DHT22;25977;45.462;9.210;2023-07-31T03:04:41;26.00;90.80
40257;DHT22;25977;45.462;9.210;2023-07-31T03:07:07;25.90;90.90
40257;DHT22;25977;45.462;9.210;2023-07-31T03:09:32;25.90;90.90
40257;DHT22;25977;45.462;9.210;2023-07-31T03:11:58;25.90;90.80
40257;DHT22;25977;45.462;9.210;2023-07-31T03:14:24;25.90;90.90
40257;DHT22;25977;45.462;9.210;2023-07-31T03:16:52;25.90;90.80
40257;DHT22;25977;45.462;9.210;2023-07-31T03:19:17;25.90;90.80
40257;DHT22;25977;45.462;9.210;2023-07-31T03:21:43;25.90;90.80
40257;DHT22;25977;45.462;9.210;2023-07-31T03:24:09;25.90;91.10
40257;DHT22;25977;45.462;9.210;2023-07-31T03:26:34;25.90;90.80
40257;DHT22;25977;45.462;9.210;2023-07-31T03:29:02;25.90;90.80
40257;DHT22;25977;45.462;9.210;2023-07-31T03:31:28;25.90;90.80
40257;DHT22;25977;45.462;9.210;2023-07-31T03:33:55;25.90;90.80
40257;DHT22;25977;45.462;9.210;2023-07-31T03:36:20;25.90;90.70
40257;DHT22;25977;45.462;9.210;2023-07-31T03:38:46;26.00;91.00
40257;DHT22;25977;45.462;9.210;2023-07-31T03:41:12;26.00;90.70
40257;DHT22;25977;45.462;9.210;2023-07-31T03:43:38;26.00;90.70
40257;DHT22;25977;45.462;9.210;2023-07-31T03:46:03;26.10;90.70
40257;DHT22;25977;45.462;9.210;2023-07-31T03:48:30;26.00;90.60
40257;DHT22;25977;45.462;9.210;2023-07-31T03:50:56;26.00;90.70
40257;DHT22;25977;45.462;9.210;2023-07-31T03:53:21;26.00;90.80
40257;DHT22;25977;45.462;9.210;2023-07-31T03:55:47;25.90;90.80
40257;DHT22;25977;45.462;9.210;2023-07-31T03:58:12;25.90;90.90
40257;DHT22;25977;45.462;9.210;2023-07-31T04:00:40;25.90;90.90
40257;DHT22;25977;45.462;9.210;2023-07-31T04:03:06;25.90;90.90
40257;DHT22;25977;45.462;9.210;2023-07-31T04:05:32;25.90;90.90
40257;DHT22;25977;45.462;9.210;2023-07-31T04:07:58;25.90;90.90
40257;DHT22;25977;45.462;9.210;2023-07-31T04:10:23;25.90;90.80
40257;DHT22;25977;45.462;9.210;2023-07-31T04:12:49;26.00;90.80
40257;DHT22;25977;45.462;9.210;2023-07-31T04:15:15;26.00;90.80
40257;DHT22;25977;45.462;9.210;2023-07-31T04:17:40;26.00;90.70
40257;DHT22;25977;45.462;9.210;2023-07-31T04:20:06;26.00;90.70
40257;DHT22;25977;45.462;9.210;2023-07-31T04:22:32;26.10;90.70
40257;DHT22;25977;45.462;9.210;2023-07-31T04:24:58;26.10;90.70
40257;DHT22;25977;45.462;9.210;2023-07-31T04:27:24;26.10;90.70
40257;DHT22;25977;45.462;9.210;2023-07-31T04:29:50;26.10;90.70
40257;DHT22;25977;45.462;9.210;2023-07-31T04:32:16;25.30;90.40
40257;DHT22;25977;45.462;9.210;2023-07-31T04:34:42;26.10;90.70
40257;DHT22;25977;45.462;9.210;2023-07-31T04:37:08;26.10;90.60
40257;DHT22;25977;45.462;9.210;2023-07-31T04:39:33;26.20;90.50
40257;DHT22;25977;45.462;9.210;2023-07-31T04:41:59;26.20;90.50
40257;DHT22;25977;45.462;9.210;2023-07-31T04:44:28;26.20;90.50
40257;DHT22;25977;45.462;9.210;2023-07-31T04:46:55;26.20;90.40
40257;DHT22;25977;45.462;9.210;2023-07-31T04:49:20;26.30;90.50
40257;DHT22;25977;45.462;9.210;2023-07-31T04:51:46;26.30;90.40
40257;DHT22;25977;45.462;9.210;2023-07-31T04:54:12;26.30;90.30
40257;DHT22;25977;45.462;9.210;2023-07-31T04:56:40;26.40;90.30
40257;DHT22;25977;45.462;9.210;2023-07-31T04:59:06;26.40;90.30
40257;DHT22;25977;45.462;9.210;2023-07-31T05:01:32;26.40;90.20
40257;DHT22;25977;45.462;9.210;2023-07-31T05:03:58;26.50;90.20
40257;DHT22;25977;45.462;9.210;2023-07-31T05:06:23;26.50;90.10
40257;DHT22;25977;45.462;9.210;2023-07-31T05:08:49;26.50;90.00
40257;DHT22;25977;45.462;9.210;2023-07-31T05:11:15;26.60;90.00
40257;DHT22;25977;45.462;9.210;2023-07-31T05:13:40;26.60;89.80
40257;DHT22;25977;45.462;9.210;2023-07-31T05:16:06;26.70;89.70
40257;DHT22;25977;45.462;9.210;2023-07-31T05:18:32;26.70;89.50
40257;DHT22;25977;45.462;9.210;2023-07-31T05:20:57;26.70;89.30
40257;DHT22;25977;45.462;9.210;2023-07-31T05:23:23;26.80;89.30
40257;DHT22;25977;45.462;9.210;2023-07-31T05:25:49;26.90;89.10
40257;DHT22;25977;45.462;9.210;2023-07-31T05:28:14;26.90;88.90
40257;DHT22;25977;45.462;9.210;2023-07-31T05:30:40;27.00;88.70
40257;DHT22;25977;45.462;9.210;2023-07-31T05:33:06;27.10;88.30
40257;DHT22;25977;45.462;9.210;2023-07-31T05:35:31;27.10;88.20
40257;DHT22;25977;45.462;9.210;2023-07-31T05:37:57;27.30;87.80
40257;DHT22;25977;45.462;9.210;2023-07-31T05:40:23;27.30;87.40
40257;DHT22;25977;45.462;9.210;2023-07-31T05:42:48;27.50;87.30
40257;DHT22;25977;45.462;9.210;2023-07-31T05:45:14;27.80;87.00
40257;DHT22;25977;45.462;9.210;2023-07-31T05:47:40;28.10;85.80
40257;DHT22;25977;45.462;9.210;2023-07-31T05:50:06;28.40;85.00
40257;DHT22;25977;45.462;9.210;2023-07-31T05:52:31;28.30;85.00
40257;DHT22;25977;45.462;9.210;2023-07-31T05:54:57;28.30;84.90
40257;DHT22;25977;45.462;9.210;2023-07-31T05:57:23;28.50;84.70
40257;DHT22;25977;45.462;9.210;2023-07-31T05:59:48;28.50;84.20
40257;DHT22;25977;45.462;9.210;2023-07-31T06:02:14;28.40;84.50
40257;DHT22;25977;45.462;9.210;2023-07-31T06:04:40;28.40;84.40
40257;DHT22;25977;45.462;9.210;2023-07-31T06:07:05;28.30;84.50
40257;DHT22;25977;45.462;9.210;2023-07-31T06:09:31;28.50;84.40
40257;DHT22;25977;45.462;9.210;2023-07-31T06:11:57;28.60;83.90
40257;DHT22;25977;45.462;9.210;2023-07-31T06:14:22;28.50;83.90
40257;DHT22;25977;45.462;9.210;2023-07-31T06:16:49;28.60;83.40
40257;DHT22;25977;45.462;9.210;2023-07-31T06:19:15;28.70;83.50
40257;DHT22;25977;45.462;9.210;2023-07-31T06:21:42;28.70;83.50
40257;DHT22;25977;45.462;9.210;2023-07-31T06:24:09;28.60;83.40
40257;DHT22;25977;45.462;9.210;2023-07-31T06:26:35;28.70;83.20
40257;DHT22;25977;45.462;9.210;2023-07-31T06:29:00;28.60;83.20
40257;DHT22;25977;45.462;9.210;2023-07-31T06:31:26;28.50;83.40
40257;DHT22;25977;45.462;9.210;2023-07-31T06:33:52;28.40;83.40
40257;DHT22;25977;45.462;9.210;2023-07-31T06:36:18;28.30;83.60
40257;DHT22;25977;45.462;9.210;2023-07-31T06:38:44;28.10;83.90
40257;DHT22;25977;45.462;9.210;2023-07-31T06:41:10;27.80;85.10
40257;DHT22;25977;45.462;9.210;2023-07-31T06:43:36;27.70;85.10
40257;DHT22;25977;45.462;9.210;2023-07-31T06:46:05;27.80;85.20
40257;DHT22;25977;45.462;9.210;2023-07-31T06:48:32;27.70;84.80
40257;DHT22;25977;45.462;9.210;2023-07-31T06:51:00;27.70;84.30
40257;DHT22;25977;45.462;9.210;2023-07-31T06:53:25;27.90;84.40
40257;DHT22;25977;45.462;9.210;2023-07-31T06:55:51;28.00;84.00
40257;DHT22;25977;45.462;9.210;2023-07-31T06:58:17;28.10;82.80
40257;DHT22;25977;45.462;9.210;2023-07-31T07:00:43;28.30;82.80
40257;DHT22;25977;45.462;9.210;2023-07-31T07:03:09;28.40;82.10
40257;DHT22;25977;45.462;9.210;2023-07-31T07:05:35;28.50;81.30
40257;DHT22;25977;45.462;9.210;2023-07-31T07:08:00;28.50;81.40
40257;DHT22;25977;45.462;9.210;2023-07-31T07:10:26;28.60;81.40
40257;DHT22;25977;45.462;9.210;2023-07-31T07:12:52;28.60;80.60
40257;DHT22;25977;45.462;9.210;2023-07-31T07:15:18;28.40;80.10
40257;DHT22;25977;45.462;9.210;2023-07-31T07:17:44;28.30;80.60
40257;DHT22;25977;45.462;9.210;2023-07-31T07:20:10;28.40;80.20
40257;DHT22;25977;45.462;9.210;2023-07-31T07:22:35;28.50;80.40
40257;DHT22;25977;45.462;9.210;2023-07-31T07:25:01;28.70;79.80
40257;DHT22;25977;45.462;9.210;2023-07-31T07:27:27;28.70;78.80
40257;DHT22;25977;45.462;9.210;2023-07-31T07:29:53;28.60;79.00
40257;DHT22;25977;45.462;9.210;2023-07-31T07:32:19;28.50;79.20
40257;DHT22;25977;45.462;9.210;2023-07-31T07:34:44;28.70;79.20
40257;DHT22;25977;45.462;9.210;2023-07-31T07:37:11;28.70;79.00
40257;DHT22;25977;45.462;9.210;2023-07-31T07:39:36;28.80;79.20
40257;DHT22;25977;45.462;9.210;2023-07-31T07:42:02;28.50;79.40
40257;DHT22;25977;45.462;9.210;2023-07-31T07:44:28;28.50;79.80
40257;DHT22;25977;45.462;9.210;2023-07-31T07:46:54;28.70;79.80
40257;DHT22;25977;45.462;9.210;2023-07-31T07:49:20;28.70;79.30
40257;DHT22;25977;45.462;9.210;2023-07-31T07:51:48;28.70;78.80
40257;DHT22;25977;45.462;9.210;2023-07-31T07:54:13;29.00;78.90
40257;DHT22;25977;45.462;9.210;2023-07-31T07:56:39;29.10;78.40
40257;DHT22;25977;45.462;9.210;2023-07-31T07:59:05;29.20;78.40
40257;DHT22;25977;45.462;9.210;2023-07-31T08:01:31;29.00;78.70
40257;DHT22;25977;45.462;9.210;2023-07-31T08:03:57;28.90;78.90
40257;DHT22;25977;45.462;9.210;2023-07-31T08:06:23;29.00;79.00
40257;DHT22;25977;45.462;9.210;2023-07-31T08:08:49;29.00;79.30
40257;DHT22;25977;45.462;9.210;2023-07-31T08:11:15;29.10;79.00
40257;DHT22;25977;45.462;9.210;2023-07-31T08:13:41;28.90;78.70
40257;DHT22;25977;45.462;9.210;2023-07-31T08:16:09;28.80;78.30
40257;DHT22;25977;45.462;9.210;2023-07-31T08:18:35;28.90;78.60
40257;DHT22;25977;45.462;9.210;2023-07-31T08:21:04;28.90;78.70
40257;DHT22;25977;45.462;9.210;2023-07-31T08:23:29;29.00;78.10
40257;DHT22;25977;45.462;9.210;2023-07-31T08:25:55;29.00;78.40
40257;DHT22;25977;45.462;9.210;2023-07-31T08:28:21;29.00;78.50
40257;DHT22;25977;45.462;9.210;2023-07-31T08:30:46;28.70;79.00
40257;DHT22;25977;45.462;9.210;2023-07-31T08:33:12;28.70;79.10
40257;DHT22;25977;45.462;9.210;2023-07-31T08:35:37;28.70;79.00
40257;DHT22;25977;45.462;9.210;2023-07-31T08:38:03;28.80;78.90
40257;DHT22;25977;45.462;9.210;2023-07-31T08:40:29;28.60;79.20
40257;DHT22;25977;45.462;9.210;2023-07-31T08:42:55;28.70;79.50
40257;DHT22;25977;45.462;9.210;2023-07-31T08:45:28;28.70;79.50
40257;DHT22;25977;45.462;9.210;2023-07-31T08:47:54;28.70;78.00
40257;DHT22;25977;45.462;9.210;2023-07-31T08:50:21;28.70;77.50
40257;DHT22;25977;45.462;9.210;2023-07-31T08:52:48;28.70;78.20
40257;DHT22;25977;45.462;9.210;2023-07-31T08:55:14;28.80;78.00
40257;DHT22;25977;45.462;9.210;2023-07-31T08:57:42;28.90;77.80
40257;DHT22;25977;45.462;9.210;2023-07-31T09:00:09;29.00;78.10
40257;DHT22;25977;45.462;9.210;2023-07-31T09:02:45;29.20;78.20
40257;DHT22;25977;45.462;9.210;2023-07-31T09:05:12;29.40;76.90
40257;DHT22;25977;45.462;9.210;2023-07-31T09:07:38;29.40;76.70
40257;DHT22;25977;45.462;9.210;2023-07-31T09:10:05;29.40;76.80
40257;DHT22;25977;45.462;9.210;2023-07-31T09:12:31;29.50;77.30
40257;DHT22;25977;45.462;9.210;2023-07-31T09:14:58;29.60;77.70
40257;DHT22;25977;45.462;9.210;2023-07-31T09:17:30;29.60;78.10
40257;DHT22;25977;45.462;9.210;2023-07-31T09:19:57;29.70;78.10
40257;DHT22;25977;45.462;9.210;2023-07-31T09:22:34;29.60;78.20
40257;DHT22;25977;45.462;9.210;2023-07-31T09:25:19;29.70;78.50
40257;DHT22;25977;45.462;9.210;2023-07-31T09:27:59;29.80;78.60
40257;DHT22;25977;45.462;9.210;2023-07-31T09:30:25;29.60;78.10
40257;DHT22;25977;45.462;9.210;2023-07-31T09:32:52;30.00;78.50
40257;DHT22;25977;45.462;9.210;2023-07-31T09:35:32;30.00;78.30
40257;DHT22;25977;45.462;9.210;2023-07-31T09:38:00;30.10;78.20
40257;DHT22;25977;45.462;9.210;2023-07-31T09:40:34;30.10;78.20
40257;DHT22;25977;45.462;9.210;2023-07-31T09:43:04;30.00;78.90
40257;DHT22;25977;45.462;9.210;2023-07-31T09:45:34;30.10;79.00
40257;DHT22;25977;45.462;9.210;2023-07-31T09:48:00;30.10;78.70
40257;DHT22;25977;45.462;9.210;2023-07-31T09:50:25;30.10;78.90
40257;DHT22;25977;45.462;9.210;2023-07-31T09:52:52;30.20;79.10
40257;DHT22;25977;45.462;9.210;2023-07-31T09:55:18;30.30;79.10
40257;DHT22;25977;45.462;9.210;2023-07-31T09:57:46;30.30;78.90
40257;DHT22;25977;45.462;9.210;2023-07-31T10:00:13;30.60;78.60
40257;DHT22;25977;45.462;9.210;2023-07-31T10:02:40;30.80;78.40
40257;DHT22;25977;45.462;9.210;2023-07-31T10:05:07;30.50;78.60
40257;DHT22;25977;45.462;9.210;2023-07-31T10:07:39;30.60;78.60
40257;DHT22;25977;45.462;9.210;2023-07-31T10:10:07;30.60;78.40
40257;DHT22;25977;45.462;9.210;2023-07-31T10:12:34;30.40;79.10
40257;DHT22;25977;45.462;9.210;2023-07-31T10:15:01;30.40;79.20
40257;DHT22;25977;45.462;9.210;2023-07-31T10:17:27;30.40;78.90
40257;DHT22;25977;45.462;9.210;2023-07-31T10:19:57;30.30;79.20
40257;DHT22;25977;45.462;9.210;2023-07-31T10:22:24;30.40;79.20
40257;DHT22;25977;45.462;9.210;2023-07-31T10:24:50;30.20;79.50
40257;DHT22;25977;45.462;9.210;2023-07-31T10:27:17;30.30;79.70
40257;DHT22;25977;45.462;9.210;2023-07-31T10:29:43;30.20;79.40
40257;DHT22;25977;45.462;9.210;2023-07-31T10:32:16;30.10;79.10
40257;DHT22;25977;45.462;9.210;2023-07-31T10:34:42;30.30;79.30
40257;DHT22;25977;45.462;9.210;2023-07-31T10:40:12;30.50;79.30
40257;DHT22;25977;45.462;9.210;2023-07-31T10:42:54;30.40;79.00
40257;DHT22;25977;45.462;9.210;2023-07-31T10:48:07;30.50;79.30
40257;DHT22;25977;45.462;9.210;2023-07-31T10:50:38;30.50;78.60
40257;DHT22;25977;45.462;9.210;2023-07-31T10:53:04;30.60;78.70
40257;DHT22;25977;45.462;9.210;2023-07-31T10:58:07;30.80;78.10
40257;DHT22;25977;45.462;9.210;2023-07-31T11:00:34;30.80;77.90
40257;DHT22;25977;45.462;9.210;2023-07-31T11:03:02;30.60;78.90
40257;DHT22;25977;45.462;9.210;2023-07-31T11:08:14;30.30;79.50
40257;DHT22;25977;45.462;9.210;2023-07-31T11:10:40;30.10;80.10
40257;DHT22;25977;45.462;9.210;2023-07-31T11:13:06;30.10;80.10
40257;DHT22;25977;45.462;9.210;2023-07-31T11:15:31;29.90;80.40
40257;DHT22;25977;45.462;9.210;2023-07-31T11:17:57;30.00;80.40
40257;DHT22;25977;45.462;9.210;2023-07-31T11:20:29;29.90;80.30
40257;DHT22;25977;45.462;9.210;2023-07-31T11:23:01;30.10;80.40
40257;DHT22;25977;45.462;9.210;2023-07-31T11:25:29;30.10;80.00
40257;DHT22;25977;45.462;9.210;2023-07-31T11:27:56;30.20;79.90
40257;DHT22;25977;45.462;9.210;2023-07-31T11:30:22;30.10;80.00
40257;DHT22;25977;45.462;9.210;2023-07-31T11:32:47;30.10;79.90
40257;DHT22;25977;45.462;9.210;2023-07-31T11:35:13;30.20;80.00
40257;DHT22;25977;45.462;9.210;2023-07-31T11:37:43;30.20;79.80
40257;DHT22;25977;45.462;9.210;2023-07-31T11:40:09;29.90;80.00
40257;DHT22;25977;45.462;9.210;2023-07-31T11:42:35;29.80;80.10
40257;DHT22;25977;45.462;9.210;2023-07-31T11:45:05;30.00;79.90
40257;DHT22;25977;45.462;9.210;2023-07-31T11:47:35;30.00;79.50
40257;DHT22;25977;45.462;9.210;2023-07-31T11:50:09;30.20;79.20
40257;DHT22;25977;45.462;9.210;2023-07-31T11:52:42;30.30;79.30
40257;DHT22;25977;45.462;9.210;2023-07-31T11:55:11;30.40;79.20
40257;DHT22;25977;45.462;9.210;2023-07-31T11:57:41;30.40;79.10
40257;DHT22;25977;45.462;9.210;2023-07-31T12:00:09;30.30;79.00
40257;DHT22;25977;45.462;9.210;2023-07-31T12:02:37;30.10;79.40
40257;DHT22;25977;45.462;9.210;2023-07-31T12:05:14;30.20;79.30
40257;DHT22;25977;45.462;9.210;2023-07-31T12:07:47;30.30;79.30
40257;DHT22;25977;45.462;9.210;2023-07-31T12:10:30;30.30;79.30
40257;DHT22;25977;45.462;9.210;2023-07-31T12:13:04;30.30;79.10
40257;DHT22;25977;45.462;9.210;2023-07-31T12:15:42;30.40;78.70
40257;DHT22;25977;45.462;9.210;2023-07-31T12:18:24;30.50;78.20
40257;DHT22;25977;45.462;9.210;2023-07-31T12:21:01;30.40;78.40
40257;DHT22;25977;45.462;9.210;2023-07-31T12:23:29;30.60;77.90
40257;DHT22;25977;45.462;9.210;2023-07-31T12:26:13;30.60;77.80
40257;DHT22;25977;45.462;9.210;2023-07-31T12:28:43;30.60;77.60
40257;DHT22;25977;45.462;9.210;2023-07-31T12:31:21;30.60;77.30
40257;DHT22;25977;45.462;9.210;2023-07-31T12:33:50;30.60;77.90
40257;DHT22;25977;45.462;9.210;2023-07-31T12:36:27;30.60;78.40
40257;DHT22;25977;45.462;9.210;2023-07-31T12:38:54;30.60;78.20
40257;DHT22;25977;45.462;9.210;2023-07-31T12:41:22;30.60;78.30
40257;DHT22;25977;45.462;9.210;2023-07-31T12:43:47;30.50;77.10
40257;DHT22;25977;45.462;9.210;2023-07-31T12:46:13;30.40;77.00
40257;DHT22;25977;45.462;9.210;2023-07-31T12:48:40;30.50;77.30
40257;DHT22;25977;45.462;9.210;2023-07-31T12:51:06;30.60;76.60
40257;DHT22;25977;45.462;9.210;2023-07-31T12:53:32;30.70;76.70
40257;DHT22;25977;45.462;9.210;2023-07-31T12:55:58;30.80;77.70
40257;DHT22;25977;45.462;9.210;2023-07-31T12:58:24;30.90;77.60
40257;DHT22;25977;45.462;9.210;2023-07-31T13:00:50;30.90;77.50
40257;DHT22;25977;45.462;9.210;2023-07-31T13:03:16;30.90;77.00
40257;DHT22;25977;45.462;9.210;2023-07-31T13:05:42;30.90;77.10
40257;DHT22;25977;45.462;9.210;2023-07-31T13:08:08;31.00;76.90
40257;DHT22;25977;45.462;9.210;2023-07-31T13:10:33;31.00;76.60
40257;DHT22;25977;45.462;9.210;2023-07-31T13:12:59;31.10;76.50
40257;DHT22;25977;45.462;9.210;2023-07-31T13:15:25;31.10;76.40
40257;DHT22;25977;45.462;9.210;2023-07-31T13:17:51;31.20;76.80
40257;DHT22;25977;45.462;9.210;2023-07-31T13:20:16;30.90;77.00
40257;DHT22;25977;45.462;9.210;2023-07-31T13:22:42;30.90;77.30
40257;DHT22;25977;45.462;9.210;2023-07-31T13:25:08;30.70;76.80
40257;DHT22;25977;45.462;9.210;2023-07-31T13:27:34;30.60;77.00
40257;DHT22;25977;45.462;9.210;2023-07-31T13:30:00;30.60;77.00
40257;DHT22;25977;45.462;9.210;2023-07-31T13:32:26;30.80;76.80
40257;DHT22;25977;45.462;9.210;2023-07-31T13:34:52;30.80;76.00
40257;DHT22;25977;45.462;9.210;2023-07-31T13:37:17;31.00;76.30
40257;DHT22;25977;45.462;9.210;2023-07-31T13:39:43;30.90;76.50
40257;DHT22;25977;45.462;9.210;2023-07-31T13:42:09;31.10;76.50
40257;DHT22;25977;45.462;9.210;2023-07-31T13:44:43;31.20;75.90
40257;DHT22;25977;45.462;9.210;2023-07-31T13:47:08;31.40;76.00
40257;DHT22;25977;45.462;9.210;2023-07-31T13:49:35;31.30;76.10
40257;DHT22;25977;45.462;9.210;2023-07-31T13:52:02;31.30;75.10
40257;DHT22;25977;45.462;9.210;2023-07-31T13:54:28;31.20;75.20
40257;DHT22;25977;45.462;9.210;2023-07-31T13:56:54;31.10;75.00
40257;DHT22;25977;45.462;9.210;2023-07-31T13:59:20;31.00;75.20
40257;DHT22;25977;45.462;9.210;2023-07-31T14:01:46;31.20;74.90
40257;DHT22;25977;45.462;9.210;2023-07-31T14:04:13;31.40;74.70
40257;DHT22;25977;45.462;9.210;2023-07-31T14:06:39;31.40;74.20
40257;DHT22;25977;45.462;9.210;2023-07-31T14:09:05;31.40;73.60
40257;DHT22;25977;45.462;9.210;2023-07-31T14:11:31;31.30;73.90
40257;DHT22;25977;45.462;9.210;2023-07-31T14:13:57;31.10;74.50
40257;DHT22;25977;45.462;9.210;2023-07-31T14:16:23;31.10;75.90
40257;DHT22;25977;45.462;9.210;2023-07-31T14:18:48;31.10;75.80
40257;DHT22;25977;45.462;9.210;2023-07-31T14:21:14;31.10;76.10
40257;DHT22;25977;45.462;9.210;2023-07-31T14:23:40;31.00;76.20
40257;DHT22;25977;45.462;9.210;2023-07-31T14:26:06;30.80;75.90
40257;DHT22;25977;45.462;9.210;2023-07-31T14:28:32;30.80;75.70
40257;DHT22;25977;45.462;9.210;2023-07-31T14:30:58;30.90;76.10
40257;DHT22;25977;45.462;9.210;2023-07-31T14:33:24;30.90;75.90
40257;DHT22;25977;45.462;9.210;2023-07-31T14:35:50;31.10;75.30
40257;DHT22;25977;45.462;9.210;2023-07-31T14:38:15;31.00;75.20
40257;DHT22;25977;45.462;9.210;2023-07-31T14:40:41;30.90;74.60
40257;DHT22;25977;45.462;9.210;2023-07-31T14:43:07;30.90;75.10
40257;DHT22;25977;45.462;9.210;2023-07-31T14:45:33;31.10;75.60
40257;DHT22;25977;45.462;9.210;2023-07-31T14:47:59;31.20;75.70
40257;DHT22;25977;45.462;9.210;2023-07-31T14:50:25;31.20;76.20
40257;DHT22;25977;45.462;9.210;2023-07-31T14:52:51;31.10;76.20
40257;DHT22;25977;45.462;9.210;2023-07-31T14:55:18;30.90;75.50
40257;DHT22;25977;45.462;9.210;2023-07-31T14:57:44;31.00;74.80
40257;DHT22;25977;45.462;9.210;2023-07-31T15:00:10;30.90;75.60
40257;DHT22;25977;45.462;9.210;2023-07-31T15:02:39;30.80;76.40
40257;DHT22;25977;45.462;9.210;2023-07-31T15:05:05;30.80;75.60
40257;DHT22;25977;45.462;9.210;2023-07-31T15:07:32;30.80;75.30
40257;DHT22;25977;45.462;9.210;2023-07-31T15:09:58;30.90;75.60
40257;DHT22;25977;45.462;9.210;2023-07-31T15:12:23;30.90;75.50
40257;DHT22;25977;45.462;9.210;2023-07-31T15:14:49;31.10;75.20
40257;DHT22;25977;45.462;9.210;2023-07-31T15:17:16;31.00;75.20
40257;DHT22;25977;45.462;9.210;2023-07-31T15:19:41;30.90;75.00
40257;DHT22;25977;45.462;9.210;2023-07-31T15:22:07;31.00;74.90
40257;DHT22;25977;45.462;9.210;2023-07-31T15:24:33;31.10;75.00
40257;DHT22;25977;45.462;9.210;2023-07-31T15:26:59;31.00;74.90
40257;DHT22;25977;45.462;9.210;2023-07-31T15:29:27;31.10;74.90
40257;DHT22;25977;45.462;9.210;2023-07-31T15:31:53;31.10;74.30
40257;DHT22;25977;45.462;9.210;2023-07-31T15:34:18;31.20;74.10
40257;DHT22;25977;45.462;9.210;2023-07-31T15:36:44;31.20;73.80
40257;DHT22;25977;45.462;9.210;2023-07-31T15:39:10;31.10;73.70
40257;DHT22;25977;45.462;9.210;2023-07-31T15:41:40;30.90;74.10
40257;DHT22;25977;45.462;9.210;2023-07-31T15:44:06;31.00;73.20